createdAt,value
2022-12-16T00:02:13.136Z,3.17
2022-12-16T00:12:02.507Z,2.83
2022-12-16T00:19:24.785Z,3.75
2022-12-16T00:21:52.322Z,2.83
2022-12-16T00:24:22.329Z,3.35
2022-12-16T00:26:49.820Z,3.70
2022-12-16T00:29:18.173Z,2.80
2022-12-16T00:31:48.430Z,3.10
2022-12-16T00:34:19.471Z,3.80
2022-12-16T00:36:47.284Z,3.08
2022-12-16T00:39:14.811Z,3.28
2022-12-16T00:41:42.619Z,3.17
2022-12-16T00:44:10.091Z,3.45
2022-12-16T00:46:37.574Z,3.50
2022-12-16T00:49:05.118Z,3.67
2022-12-16T00:56:27.218Z,3.20
2022-12-16T00:58:54.820Z,3.72
2022-12-16T01:01:22.569Z,3.63
2022-12-16T01:03:49.988Z,3.97
2022-12-16T01:06:18.464Z,3.55
2022-12-16T01:08:48.887Z,3.90
2022-12-16T01:11:18.417Z,3.80
2022-12-16T01:13:47.398Z,3.42
2022-12-16T01:16:15.619Z,3.65
2022-12-16T01:18:43.079Z,3.63
2022-12-16T01:23:39.606Z,3.67
2022-12-16T01:26:07.142Z,3.20
2022-12-16T01:28:35.584Z,4.30
2022-12-16T01:36:05.386Z,3.20
2022-12-16T01:38:33.413Z,3.53
2022-12-16T01:41:01.218Z,3.65
2022-12-16T01:43:34.642Z,4.05
2022-12-16T01:46:14.234Z,3.20
2022-12-16T01:48:59.174Z,3.42
2022-12-16T01:51:34.903Z,3.22
2022-12-16T01:57:03.028Z,3.70
2022-12-16T01:59:34.360Z,3.88
2022-12-16T02:02:03.998Z,3.30
2022-12-16T02:04:31.609Z,3.88
2022-12-16T02:09:27.591Z,3.15
2022-12-16T02:15:12.132Z,3.17
2022-12-16T02:20:53.275Z,3.90
2022-12-16T02:23:31.021Z,3.75
2022-12-16T02:26:17.626Z,3.97
2022-12-16T02:29:04.734Z,3.80
2022-12-16T02:34:59.302Z,3.53
2022-12-16T02:38:11.165Z,3.85
2022-12-16T02:41:01.996Z,4.05
2022-12-16T02:46:56.093Z,3.90
2022-12-16T02:49:23.575Z,3.50
2022-12-16T02:54:19.241Z,3.75
2022-12-16T02:57:05.637Z,4.18
2022-12-16T02:59:59.455Z,4.07
2022-12-16T03:02:37.289Z,4.18
2022-12-16T03:05:15.670Z,4.57
2022-12-16T03:07:45.576Z,3.97
2022-12-16T03:10:19.599Z,4.30
2022-12-16T03:12:47.532Z,5.43
2022-12-16T03:15:19.563Z,4.18
2022-12-16T03:23:10.490Z,4.13
2022-12-16T03:25:41.581Z,4.72
2022-12-16T03:28:15.312Z,4.20
2022-12-16T03:30:51.234Z,4.65
2022-12-16T03:33:28.044Z,4.45
2022-12-16T03:36:06.215Z,4.53
2022-12-16T03:38:35.116Z,5.00
2022-12-16T03:41:05.063Z,4.50
2022-12-16T03:43:32.978Z,4.47
2022-12-16T03:46:06.523Z,4.70
2022-12-16T03:48:34.394Z,5.00
2022-12-16T03:53:47.266Z,5.18
2022-12-16T03:58:42.449Z,4.60
2022-12-16T04:01:10.710Z,4.80
2022-12-16T04:03:38.626Z,4.40
2022-12-16T04:06:06.674Z,4.63
2022-12-16T04:11:37.434Z,4.82
2022-12-16T04:14:23.533Z,4.72
2022-12-16T04:17:09.800Z,4.80
2022-12-16T04:19:56.740Z,4.73
2022-12-16T04:22:50.682Z,4.50
2022-12-16T04:28:07.465Z,4.88
2022-12-16T04:30:34.976Z,4.75
2022-12-16T04:33:31.505Z,5.32
2022-12-16T04:36:18.111Z,4.38
2022-12-16T04:39:04.090Z,5.13
2022-12-16T04:44:53.909Z,4.82
2022-12-16T04:47:40.095Z,5.07
2022-12-16T04:50:26.477Z,5.47
2022-12-16T04:53:12.319Z,5.22
2022-12-16T04:56:03.874Z,5.60
2022-12-16T05:02:05.276Z,5.72
2022-12-16T05:04:51.692Z,4.53
2022-12-16T05:07:38.699Z,5.03
2022-12-16T05:13:34.636Z,5.13
2022-12-16T05:16:20.751Z,4.85
2022-12-16T05:19:06.514Z,5.25
2022-12-16T05:21:52.604Z,5.72
2022-12-16T05:24:39.081Z,4.88
2022-12-16T05:27:25.148Z,5.15
2022-12-16T05:30:11.014Z,5.00
2022-12-16T05:32:57.488Z,5.18
2022-12-16T05:35:43.575Z,5.70
2022-12-16T05:38:29.588Z,5.25
2022-12-16T05:41:15.396Z,5.60
2022-12-16T05:44:01.501Z,5.82
2022-12-16T05:46:47.535Z,5.47
2022-12-16T05:49:33.515Z,5.60
2022-12-16T05:52:19.601Z,5.30
2022-12-16T05:55:06.142Z,5.72
2022-12-16T05:57:52.394Z,5.93
2022-12-16T06:00:38.899Z,5.60
2022-12-16T06:03:25.451Z,5.53
2022-12-16T06:06:11.838Z,5.07
2022-12-16T06:08:58.001Z,5.40
2022-12-16T06:11:43.972Z,6.07
2022-12-16T06:14:29.960Z,4.93
2022-12-16T06:17:16.186Z,6.03
2022-12-16T06:20:02.031Z,5.20
2022-12-16T06:22:48.251Z,5.30
2022-12-16T06:25:34.584Z,5.63
2022-12-16T06:28:20.873Z,5.97
2022-12-16T06:31:07.455Z,5.57
2022-12-16T06:33:55.086Z,5.93
2022-12-16T06:36:41.454Z,5.70
2022-12-16T06:39:27.954Z,6.00
2022-12-16T06:42:14.245Z,6.20
2022-12-16T06:45:00.166Z,5.90
2022-12-16T06:47:46.363Z,6.40
2022-12-16T06:50:32.721Z,5.87
2022-12-16T06:53:18.724Z,6.35
2022-12-16T06:56:04.944Z,6.40
2022-12-16T06:58:51.035Z,6.13
2022-12-16T07:01:37.116Z,6.47
2022-12-16T07:04:23.167Z,6.70
2022-12-16T07:07:09.066Z,6.43
2022-12-16T07:09:54.959Z,6.15
2022-12-16T07:12:41.279Z,6.25
2022-12-16T07:15:27.575Z,7.18
2022-12-16T07:18:13.850Z,6.55
2022-12-16T07:20:59.982Z,6.87
2022-12-16T07:23:46.361Z,6.78
2022-12-16T07:26:32.561Z,7.00
2022-12-16T07:29:18.907Z,6.88
2022-12-16T07:32:06.143Z,7.22
2022-12-16T07:34:52.102Z,7.57
2022-12-16T07:37:38.180Z,7.88
2022-12-16T07:40:24.276Z,7.35
2022-12-16T07:43:10.293Z,6.78
2022-12-16T07:45:56.385Z,7.63
2022-12-16T07:48:42.461Z,6.97
2022-12-16T07:51:28.555Z,7.38
2022-12-16T07:54:14.449Z,7.50
2022-12-16T07:57:08.403Z,6.97
2022-12-16T07:59:54.474Z,7.65
2022-12-16T08:02:40.677Z,7.03
2022-12-16T08:05:26.654Z,7.80
2022-12-16T08:08:13.077Z,7.25
2022-12-16T08:10:58.972Z,8.13
2022-12-16T08:13:45.269Z,7.47
2022-12-16T08:16:31.413Z,7.22
2022-12-16T08:19:17.342Z,7.90
2022-12-16T08:22:03.602Z,7.25
2022-12-16T08:24:53.471Z,8.33
2022-12-16T08:27:42.343Z,8.00
2022-12-16T08:30:29.056Z,7.70
2022-12-16T08:33:19.307Z,7.00
2022-12-16T08:36:06.813Z,8.05
2022-12-16T08:38:52.910Z,7.90
2022-12-16T08:41:39.186Z,7.53
2022-12-16T08:44:25.424Z,8.00
2022-12-16T08:47:11.700Z,7.70
2022-12-16T08:49:59.854Z,7.13
2022-12-16T08:52:49.007Z,7.25
2022-12-16T08:55:38.136Z,7.55
2022-12-16T08:58:26.915Z,7.78
2022-12-16T09:01:13.441Z,7.32
2022-12-16T09:03:59.861Z,8.07
2022-12-16T09:06:45.816Z,8.00
2022-12-16T09:09:31.969Z,7.55
2022-12-16T09:12:18.163Z,8.13
2022-12-16T09:15:04.986Z,7.13
2022-12-16T09:17:51.104Z,7.18
2022-12-16T09:20:37.437Z,7.75
2022-12-16T09:23:23.621Z,6.97
2022-12-16T09:26:09.685Z,6.87
2022-12-16T09:28:55.815Z,7.28
2022-12-16T09:31:42.301Z,7.50
2022-12-16T09:34:28.714Z,7.10
2022-12-16T09:37:14.837Z,7.47
2022-12-16T09:40:00.965Z,7.38
2022-12-16T09:43:19.871Z,7.20
2022-12-16T09:46:28.683Z,7.38
2022-12-16T09:49:52.611Z,7.53
2022-12-16T09:52:41.152Z,7.43
2022-12-16T09:55:45.493Z,7.25
2022-12-16T09:58:32.873Z,7.45
2022-12-16T10:01:19.735Z,7.50
2022-12-16T10:04:06.107Z,7.38
2022-12-16T10:07:04.891Z,7.93
2022-12-16T10:10:09.053Z,7.88
2022-12-16T10:13:10.171Z,7.47
2022-12-16T10:16:14.630Z,7.82
2022-12-16T10:19:05.007Z,8.20
2022-12-16T10:22:12.442Z,7.18
2022-12-16T10:25:07.367Z,7.65
2022-12-16T10:28:06.035Z,6.90
2022-12-16T10:30:55.410Z,7.05
2022-12-16T10:33:47.415Z,7.10
2022-12-16T10:36:39.326Z,7.05
2022-12-16T10:39:41.248Z,7.18
2022-12-16T10:42:39.717Z,7.30
2022-12-16T10:45:37.858Z,7.18
2022-12-16T10:48:24.195Z,7.55
2022-12-16T10:51:09.963Z,7.22
2022-12-16T10:53:55.943Z,6.90
2022-12-16T10:57:14.164Z,7.10
2022-12-16T11:00:00.141Z,7.05
2022-12-16T11:02:47.625Z,6.60
2022-12-16T11:06:01.225Z,6.90
2022-12-16T11:08:51.821Z,7.20
2022-12-16T11:11:45.421Z,6.78
2022-12-16T11:15:05.961Z,6.32
2022-12-16T11:17:56.221Z,6.78
2022-12-16T11:20:44.534Z,6.80
2022-12-16T11:23:38.883Z,7.05
2022-12-16T11:26:28.507Z,7.18
2022-12-16T11:29:35.059Z,7.05
2022-12-16T11:32:21.089Z,6.40
2022-12-16T11:35:18.944Z,6.63
2022-12-16T11:38:06.925Z,6.72
2022-12-16T11:40:53.493Z,7.47
2022-12-16T11:43:43.316Z,6.75
2022-12-16T11:46:37.902Z,6.75
2022-12-16T11:49:33.407Z,6.30
2022-12-16T11:52:36.969Z,7.32
2022-12-16T11:55:48.138Z,6.82
2022-12-16T11:58:51.575Z,7.28
2022-12-16T12:02:12.619Z,6.80
2022-12-16T12:04:58.889Z,6.40
2022-12-16T12:07:55.462Z,5.60
2022-12-16T12:10:45.071Z,5.95
2022-12-16T12:14:00.329Z,6.53
2022-12-16T12:17:25.157Z,5.80
2022-12-16T12:20:17.508Z,6.38
2022-12-16T12:23:09.147Z,6.30
2022-12-16T12:26:12.026Z,5.90
2022-12-16T12:29:23.017Z,5.82
2022-12-16T12:32:42.765Z,5.70
2022-12-16T12:36:09.133Z,5.53
2022-12-16T12:42:08.394Z,5.25
2022-12-16T12:45:04.045Z,5.22
2022-12-16T12:47:54.482Z,5.30
2022-12-16T12:50:48.961Z,5.22
2022-12-16T12:53:42.205Z,4.57
2022-12-16T12:57:07.277Z,4.63
2022-12-16T13:00:11.760Z,4.70
2022-12-16T13:03:04.271Z,4.32
2022-12-16T13:05:52.751Z,3.55
2022-12-16T13:09:10.263Z,4.63
2022-12-16T13:11:56.988Z,4.70
2022-12-16T13:14:49.802Z,3.17
2022-12-16T13:17:40.133Z,3.53
2022-12-16T13:20:51.492Z,2.88
2022-12-16T13:23:46.465Z,3.08
2022-12-16T13:26:38.514Z,2.80
2022-12-16T13:29:30.395Z,2.63
2022-12-16T13:32:30.785Z,2.38
2022-12-16T13:35:41.104Z,2.75
2022-12-16T13:38:36.342Z,2.42
2022-12-16T13:41:25.300Z,2.33
2022-12-16T13:44:21.920Z,2.75
2022-12-16T13:47:12.254Z,2.70
2022-12-16T13:50:10.249Z,2.42
2022-12-16T13:52:59.400Z,2.47
2022-12-16T13:56:20.037Z,2.70
2022-12-16T13:59:19.537Z,2.90
2022-12-16T14:02:06.234Z,2.72
2022-12-16T14:05:03.172Z,2.50
2022-12-16T14:07:52.293Z,3.40
2022-12-16T14:10:55.168Z,3.08
2022-12-16T14:14:02.429Z,3.58
2022-12-16T14:17:13.975Z,3.30
2022-12-16T14:20:30.848Z,2.95
2022-12-16T14:23:59.472Z,3.40
2022-12-16T14:26:46.884Z,3.20
2022-12-16T14:32:38.608Z,3.13
2022-12-16T14:35:35.052Z,3.85
2022-12-16T14:38:47.285Z,3.88
2022-12-16T14:41:34.690Z,3.83
2022-12-16T14:44:23.907Z,3.38
2022-12-16T14:47:10.770Z,3.65
2022-12-16T14:53:06.646Z,3.85
2022-12-16T14:55:54.079Z,3.90
2022-12-16T14:58:42.736Z,4.07
2022-12-16T15:01:40.315Z,6.35
2022-12-16T15:04:37.296Z,4.15
2022-12-16T15:10:18.741Z,4.63
2022-12-16T15:13:07.566Z,4.50
2022-12-16T15:16:02.634Z,4.78
2022-12-16T15:18:59.637Z,4.78
2022-12-16T15:21:46.053Z,4.40
2022-12-16T15:24:38.804Z,4.50
2022-12-16T15:27:44.051Z,5.00
2022-12-16T15:30:49.860Z,4.00
2022-12-16T15:33:38.583Z,5.40
2022-12-16T15:36:31.586Z,4.50
2022-12-16T15:39:17.871Z,4.15
2022-12-16T15:42:06.383Z,3.90
2022-12-16T15:44:52.742Z,3.97
2022-12-16T15:47:51.948Z,4.28
2022-12-16T15:50:41.431Z,4.20
2022-12-16T15:53:49.197Z,5.18
2022-12-16T15:56:40.821Z,4.68
2022-12-16T15:59:46.315Z,5.13
2022-12-16T16:02:42.381Z,6.38
2022-12-16T16:05:35.085Z,5.72
2022-12-16T16:08:21.532Z,5.43
2022-12-16T16:11:07.557Z,5.95
2022-12-16T16:13:53.915Z,6.05
2022-12-16T16:16:40.383Z,5.93
2022-12-16T16:19:38.260Z,5.68
2022-12-16T16:22:29.929Z,6.03
2022-12-16T16:25:16.664Z,6.15
2022-12-16T16:28:02.600Z,6.35
2022-12-16T16:30:49.330Z,5.90
2022-12-16T16:33:35.872Z,5.63
2022-12-16T16:36:32.734Z,6.50
2022-12-16T16:39:19.564Z,6.40
2022-12-16T16:42:05.973Z,6.80
2022-12-16T16:44:52.368Z,6.55
2022-12-16T16:47:38.387Z,6.68
2022-12-16T16:50:25.781Z,6.72
2022-12-16T16:53:11.753Z,6.70
2022-12-16T16:56:01.926Z,6.78
2022-12-16T16:58:53.488Z,6.78
2022-12-16T17:01:39.425Z,6.55
2022-12-16T17:04:25.722Z,7.10
2022-12-16T17:07:16.606Z,7.15
2022-12-16T17:10:02.949Z,7.72
2022-12-16T17:12:50.166Z,7.00
2022-12-16T17:15:50.685Z,7.25
2022-12-16T17:18:43.765Z,7.25
2022-12-16T17:21:31.719Z,7.47
2022-12-16T17:24:17.708Z,8.15
2022-12-16T17:27:04.189Z,7.32
2022-12-16T17:29:50.451Z,6.75
2022-12-16T17:32:36.704Z,7.53
2022-12-16T17:35:22.941Z,7.47
2022-12-16T17:38:10.197Z,8.70
2022-12-16T17:40:56.419Z,7.65
2022-12-16T17:43:42.724Z,8.53
2022-12-16T17:46:30.706Z,8.23
2022-12-16T17:49:18.165Z,8.48
2022-12-16T17:52:04.377Z,8.82
2022-12-16T17:54:50.599Z,9.73
2022-12-16T17:57:36.712Z,8.88
2022-12-16T18:00:23.933Z,9.48
2022-12-16T18:05:55.894Z,10.20
2022-12-16T18:08:41.856Z,9.45
2022-12-16T18:11:28.062Z,9.73
2022-12-16T18:14:14.258Z,10.93
2022-12-16T18:17:00.312Z,11.40
2022-12-16T18:19:46.217Z,11.07
2022-12-16T18:22:35.567Z,10.35
2022-12-16T18:25:21.981Z,11.65
2022-12-16T18:28:08.222Z,10.85
2022-12-16T18:30:55.260Z,11.80
2022-12-16T18:33:41.657Z,12.07
2022-12-16T18:36:27.667Z,11.55
2022-12-16T18:39:13.997Z,11.27
2022-12-16T18:42:04.763Z,11.60
2022-12-16T18:44:54.876Z,11.75
2022-12-16T18:47:43.601Z,10.60
2022-12-16T18:50:35.762Z,11.75
2022-12-16T18:53:24.772Z,11.70
2022-12-16T18:59:07.906Z,11.32
2022-12-16T19:01:53.880Z,11.43
2022-12-16T19:04:39.851Z,12.20
2022-12-16T19:07:26.135Z,11.52
2022-12-16T19:10:12.231Z,11.35
2022-12-16T19:12:58.486Z,11.57
2022-12-16T19:15:44.322Z,10.33
2022-12-16T19:18:30.810Z,10.88
2022-12-16T19:21:16.903Z,12.88
2022-12-16T19:24:03.021Z,13.40
2022-12-16T19:26:49.102Z,13.30
2022-12-16T19:29:35.138Z,14.07
2022-12-16T19:32:21.357Z,15.07
2022-12-16T19:35:08.611Z,14.27
2022-12-16T19:37:54.613Z,13.68
2022-12-16T19:40:43.040Z,13.82
2022-12-16T19:43:29.043Z,14.32
2022-12-16T19:46:15.187Z,13.07
2022-12-16T19:49:00.955Z,13.60
2022-12-16T19:51:47.367Z,13.57
2022-12-16T19:54:35.891Z,13.25
2022-12-16T19:57:24.032Z,14.25
2022-12-16T20:00:10.426Z,13.93
2022-12-16T20:02:59.898Z,15.10
2022-12-16T20:05:46.185Z,15.07
2022-12-16T20:08:32.834Z,16.95
2022-12-16T20:11:26.521Z,16.10
2022-12-16T20:14:14.644Z,14.45
2022-12-16T20:17:03.901Z,16.10
2022-12-16T20:19:49.834Z,14.23
2022-12-16T20:22:35.814Z,13.80
2022-12-16T20:25:21.875Z,14.10
2022-12-16T20:28:07.737Z,15.55
2022-12-16T20:30:56.383Z,14.13
2022-12-16T20:33:42.688Z,13.98
2022-12-16T20:36:29.078Z,14.02
2022-12-16T20:39:14.918Z,14.38
2022-12-16T20:42:01.056Z,15.57
2022-12-16T20:44:47.032Z,14.27
2022-12-16T20:47:32.974Z,15.05
2022-12-16T20:50:19.267Z,15.07
2022-12-16T20:53:05.394Z,17.25
2022-12-16T20:55:51.297Z,15.27
2022-12-16T20:58:39.599Z,16.02
2022-12-16T21:01:25.896Z,15.90
2022-12-16T21:04:12.100Z,17.25
2022-12-16T21:06:58.346Z,17.83
2022-12-16T21:09:44.756Z,17.67
2022-12-16T21:12:30.931Z,17.23
2022-12-16T21:15:17.112Z,18.83
2022-12-16T21:18:06.415Z,17.23
2022-12-16T21:20:52.755Z,17.75
2022-12-16T21:23:42.823Z,18.00
2022-12-16T21:26:28.905Z,17.58
2022-12-16T21:29:15.246Z,18.23
2022-12-16T21:32:01.328Z,18.75
2022-12-16T21:34:47.284Z,18.42
2022-12-16T21:37:33.413Z,19.13
2022-12-16T21:40:19.403Z,18.57
2022-12-16T21:43:05.266Z,19.00
2022-12-16T21:45:51.361Z,19.02
2022-12-16T21:48:37.705Z,19.35
2022-12-16T21:51:23.630Z,20.10
2022-12-16T21:54:11.139Z,19.65
2022-12-16T21:56:56.989Z,19.02
2022-12-16T21:59:43.227Z,20.50
2022-12-16T22:02:32.490Z,21.10
2022-12-16T22:05:18.813Z,19.90
2022-12-16T22:08:04.986Z,19.70
2022-12-16T22:10:51.325Z,20.30
2022-12-16T22:13:38.275Z,20.23
2022-12-16T22:16:24.491Z,20.42
2022-12-16T22:19:17.167Z,20.42
2022-12-16T22:22:05.946Z,19.83
2022-12-16T22:24:52.117Z,19.10
2022-12-16T22:27:39.576Z,18.63
2022-12-16T22:30:26.506Z,19.50
2022-12-16T22:33:12.871Z,19.15
2022-12-16T22:35:58.764Z,20.00
2022-12-16T22:38:45.129Z,19.58
2022-12-16T22:41:31.159Z,20.42
2022-12-16T22:44:17.388Z,20.40
2022-12-16T22:47:03.482Z,20.40
2022-12-16T22:49:49.782Z,21.65
2022-12-16T22:52:36.162Z,21.17
2022-12-16T22:55:22.134Z,22.42
2022-12-16T22:58:08.036Z,21.42
2022-12-16T23:00:59.382Z,20.55
2022-12-16T23:03:45.226Z,20.77
2022-12-16T23:06:31.540Z,21.08
2022-12-16T23:09:17.444Z,20.63
2022-12-16T23:12:03.401Z,21.17
2022-12-16T23:14:49.387Z,22.00
2022-12-16T23:17:35.715Z,21.77
2022-12-16T23:20:23.706Z,21.42
2022-12-16T23:23:13.147Z,20.88
2022-12-16T23:25:59.487Z,19.75
2022-12-16T23:28:45.733Z,18.70
2022-12-16T23:31:31.979Z,19.67
2022-12-16T23:34:18.027Z,18.77
2022-12-16T23:37:03.863Z,15.73
2022-12-16T23:39:49.782Z,16.83
2022-12-16T23:42:35.852Z,15.82
2022-12-16T23:45:26.545Z,16.77
2022-12-16T23:48:20.384Z,15.27
2022-12-16T23:51:06.673Z,16.23
2022-12-16T23:53:52.617Z,14.68
2022-12-16T23:56:43.296Z,14.57
2022-12-16T23:59:29.722Z,15.05
